createdAt,value
2023-04-08T00:04:31.604Z,85.69
2023-04-08T00:09:32.894Z,85.93
2023-04-08T00:14:34.725Z,85.84
2023-04-08T00:19:36.286Z,86.20
2023-04-08T00:24:37.513Z,86.05
2023-04-08T00:29:38.554Z,85.91
2023-04-08T00:34:39.575Z,86.39
2023-04-08T00:39:40.820Z,86.08
2023-04-08T00:44:42.060Z,86.36
2023-04-08T00:49:43.423Z,86.59
2023-04-08T00:54:44.685Z,86.62
2023-04-08T00:59:45.669Z,86.79
2023-04-08T01:04:59.213Z,86.84
2023-04-08T01:10:29.334Z,86.50
2023-04-08T01:15:32.524Z,86.42
2023-04-08T01:20:34.583Z,85.92
2023-04-08T01:25:37.417Z,85.76
2023-04-08T01:30:40.489Z,86.02
2023-04-08T01:35:42.272Z,85.74
2023-04-08T01:40:44.369Z,85.72
2023-04-08T01:45:47.090Z,85.56
2023-04-08T01:50:48.555Z,84.78
2023-04-08T01:55:55.497Z,84.48
2023-04-08T02:00:58.287Z,84.10
2023-04-08T02:05:59.702Z,84.06
2023-04-08T02:11:01.168Z,84.53
2023-04-08T02:16:25.820Z,84.72
2023-04-08T02:21:35.166Z,85.18
2023-04-08T02:26:39.473Z,85.10
2023-04-08T02:31:42.730Z,85.24
2023-04-08T02:36:46.392Z,84.65
2023-04-08T02:41:47.659Z,84.60
2023-04-08T02:46:48.818Z,84.30
2023-04-08T02:51:49.889Z,84.48
2023-04-08T02:56:50.996Z,84.19
2023-04-08T03:01:52.076Z,84.17
2023-04-08T03:06:53.125Z,83.76
2023-04-08T03:11:54.225Z,84.08
2023-04-08T03:16:55.321Z,84.03
2023-04-08T03:21:56.341Z,84.12
2023-04-08T03:26:57.333Z,84.00
2023-04-08T03:31:58.359Z,84.30
2023-04-08T03:36:59.381Z,84.42
2023-04-08T03:42:00.503Z,84.41
2023-04-08T03:47:01.441Z,84.40
2023-04-08T03:52:02.558Z,84.23
2023-04-08T03:57:03.674Z,84.15
2023-04-08T04:02:05.013Z,83.91
2023-04-08T04:07:06.006Z,83.80
2023-04-08T04:12:07.233Z,83.63
2023-04-08T04:17:08.190Z,83.15
2023-04-08T04:22:09.240Z,82.84
2023-04-08T04:27:10.257Z,82.98
2023-04-08T04:32:11.506Z,83.24
2023-04-08T04:37:13.156Z,83.20
2023-04-08T04:42:14.326Z,83.15
2023-04-08T04:47:15.845Z,82.69
2023-04-08T04:52:16.821Z,82.48
2023-04-08T04:57:17.819Z,82.41
2023-04-08T05:02:18.966Z,82.55
2023-04-08T05:07:21.150Z,82.42
2023-04-08T05:12:22.175Z,82.57
2023-04-08T05:17:23.322Z,82.24
2023-04-08T05:22:24.352Z,81.66
2023-04-08T05:27:25.559Z,81.38
2023-04-08T05:32:26.817Z,81.85
2023-04-08T05:37:27.841Z,81.81
2023-04-08T05:42:28.822Z,81.47
2023-04-08T05:47:30.011Z,81.10
2023-04-08T05:52:31.002Z,80.48
2023-04-08T05:57:32.083Z,80.28
2023-04-08T06:02:33.853Z,79.76
2023-04-08T06:07:34.977Z,79.18
2023-04-08T06:12:38.823Z,79.22
2023-04-08T06:17:39.987Z,78.61
2023-04-08T06:22:40.943Z,78.49
2023-04-08T06:27:41.875Z,78.30
2023-04-08T06:32:42.812Z,78.87
2023-04-08T06:37:43.757Z,78.80
2023-04-08T06:42:44.765Z,78.61
2023-04-08T06:47:55.686Z,77.91
2023-04-08T06:52:56.692Z,76.74
2023-04-08T06:57:57.800Z,75.46
2023-04-08T07:02:58.891Z,75.43
2023-04-08T07:08:00.083Z,75.75
2023-04-08T07:13:01.517Z,74.47
2023-04-08T07:18:04.009Z,73.93
2023-04-08T07:23:05.233Z,74.71
2023-04-08T07:28:06.151Z,73.11
2023-04-08T07:33:07.277Z,72.54
2023-04-08T07:38:10.920Z,71.66
2023-04-08T07:43:12.096Z,70.97
2023-04-08T07:48:13.160Z,70.40
2023-04-08T07:53:15.162Z,70.28
2023-04-08T07:58:16.128Z,70.75
2023-04-08T08:03:17.618Z,69.78
2023-04-08T08:08:18.714Z,69.45
2023-04-08T08:13:22.409Z,69.48
2023-04-08T08:18:23.716Z,67.64
2023-04-08T08:23:24.942Z,67.71
2023-04-08T08:28:26.819Z,67.08
2023-04-08T08:33:27.831Z,66.64
2023-04-08T08:38:28.859Z,65.18
2023-04-08T08:43:33.862Z,64.23
2023-04-08T08:48:38.005Z,62.91
2023-04-08T08:53:44.388Z,60.34
2023-04-08T08:58:47.041Z,61.28
2023-04-08T09:04:06.858Z,59.77
2023-04-08T09:09:11.635Z,61.68
2023-04-08T09:14:18.222Z,62.05
2023-04-08T09:19:19.618Z,60.98
2023-04-08T09:24:31.176Z,59.78
2023-04-08T09:29:35.123Z,60.86
2023-04-08T09:34:37.640Z,58.95
2023-04-08T09:39:38.827Z,58.30
2023-04-08T09:44:45.154Z,58.58
2023-04-08T09:49:54.502Z,57.72
2023-04-08T09:55:04.464Z,56.46
2023-04-08T10:00:13.219Z,54.52
2023-04-08T10:05:17.857Z,53.30
2023-04-08T10:10:20.128Z,56.51
2023-04-08T10:15:25.335Z,55.50
2023-04-08T10:20:35.475Z,56.15
2023-04-08T10:25:42.535Z,56.55
2023-04-08T10:30:46.832Z,55.72
2023-04-08T10:35:52.918Z,55.46
2023-04-08T10:40:54.304Z,54.91
2023-04-08T10:45:56.039Z,53.04
2023-04-08T10:50:59.538Z,53.47
2023-04-08T10:56:14.660Z,53.94
2023-04-08T11:01:16.095Z,52.40
2023-04-08T11:06:17.601Z,52.20
2023-04-08T11:11:18.928Z,51.65
2023-04-08T11:16:20.780Z,51.90
2023-04-08T11:21:28.728Z,52.14
2023-04-08T11:26:30.162Z,52.26
2023-04-08T11:31:32.307Z,51.86
2023-04-08T11:36:35.926Z,50.92
2023-04-08T11:41:41.380Z,51.55
2023-04-08T11:46:54.555Z,49.10
2023-04-08T11:51:59.539Z,49.98
2023-04-08T11:57:02.427Z,48.89
2023-04-08T12:02:04.150Z,48.78
2023-04-08T12:07:05.211Z,48.86
2023-04-08T12:12:06.629Z,48.86
2023-04-08T12:17:07.898Z,49.09
2023-04-08T12:22:08.818Z,49.04
2023-04-08T12:27:10.432Z,48.51
2023-04-08T12:32:11.902Z,49.38
2023-04-08T12:37:12.848Z,50.00
2023-04-08T12:42:14.469Z,50.53
2023-04-08T12:47:15.825Z,51.00
2023-04-08T12:52:17.961Z,52.20
2023-04-08T12:57:18.954Z,52.28
2023-04-08T13:02:20.014Z,53.03
2023-04-08T13:07:21.467Z,53.78
2023-04-08T13:12:22.721Z,55.83
2023-04-08T13:17:23.716Z,57.26
2023-04-08T13:22:24.838Z,57.61
2023-04-08T13:27:25.822Z,57.66
2023-04-08T13:32:26.988Z,61.11
2023-04-08T13:37:28.673Z,63.23
2023-04-08T13:42:30.917Z,63.59
2023-04-08T13:47:31.897Z,64.08
2023-04-08T13:52:33.499Z,63.67
2023-04-08T13:57:34.877Z,63.82
2023-04-08T14:02:35.911Z,62.87
2023-04-08T14:07:37.057Z,62.81
2023-04-08T14:12:38.021Z,62.97
2023-04-08T14:17:39.022Z,62.75
2023-04-08T14:22:41.236Z,63.49
2023-04-08T14:27:56.766Z,64.07
2023-04-08T14:33:00.496Z,63.92
2023-04-08T14:38:01.683Z,63.57
2023-04-08T14:43:02.731Z,63.87
2023-04-08T14:48:03.817Z,64.86
2023-04-08T14:53:04.816Z,65.10
2023-04-08T14:58:05.800Z,65.94
2023-04-08T15:03:06.967Z,65.99
2023-04-08T15:08:08.557Z,66.05
2023-04-08T15:13:13.496Z,65.24
2023-04-08T15:18:14.861Z,65.56
2023-04-08T15:23:16.288Z,65.75
2023-04-08T15:28:17.264Z,66.36
2023-04-08T15:33:19.380Z,66.10
2023-04-08T15:38:20.769Z,66.24
2023-04-08T15:43:21.923Z,66.62
2023-04-08T15:48:22.864Z,66.64
2023-04-08T15:53:23.808Z,66.60
2023-04-08T15:58:24.775Z,67.10
2023-04-08T16:03:25.847Z,66.79
2023-04-08T16:08:27.560Z,67.09
2023-04-08T16:13:29.426Z,67.17
2023-04-08T16:18:30.625Z,67.35
2023-04-08T16:23:33.335Z,67.49
2023-04-08T16:28:36.153Z,67.73
2023-04-08T16:33:37.310Z,67.92
2023-04-08T16:38:38.489Z,68.55
2023-04-08T16:43:39.522Z,68.64
2023-04-08T16:48:41.273Z,68.99
2023-04-08T16:53:42.251Z,69.10
2023-04-08T16:58:43.225Z,69.29
2023-04-08T17:03:45.998Z,69.22
2023-04-08T17:08:47.052Z,69.57
2023-04-08T17:13:48.433Z,69.50
2023-04-08T17:18:49.721Z,69.81
2023-04-08T17:23:51.843Z,70.06
2023-04-08T17:28:53.120Z,70.09
2023-04-08T17:33:54.172Z,70.49
2023-04-08T17:38:55.275Z,70.73
2023-04-08T17:43:56.891Z,70.76
2023-04-08T17:48:57.858Z,71.18
2023-04-08T17:53:58.906Z,71.63
2023-04-08T17:58:59.987Z,71.53
2023-04-08T18:04:01.366Z,71.60
2023-04-08T18:09:03.165Z,72.16
2023-04-08T18:14:05.613Z,72.35
2023-04-08T18:19:06.526Z,72.70
2023-04-08T18:24:08.741Z,72.81
2023-04-08T18:29:10.574Z,72.71
2023-04-08T18:34:11.542Z,72.35
2023-04-08T18:39:12.563Z,72.54
2023-04-08T18:44:13.549Z,72.60
2023-04-08T18:49:14.822Z,72.87
2023-04-08T18:54:17.217Z,72.89
2023-04-08T18:59:19.326Z,72.86
2023-04-08T19:04:21.334Z,72.94
2023-04-08T19:09:22.418Z,73.17
2023-04-08T19:14:24.729Z,73.89
2023-04-08T19:19:25.630Z,74.02
2023-04-08T19:24:26.668Z,74.19
2023-04-08T19:29:30.344Z,74.35
2023-04-08T19:34:36.518Z,73.98
2023-04-08T19:39:37.704Z,74.32
2023-04-08T19:44:38.730Z,74.66
2023-04-08T19:49:40.445Z,75.02
2023-04-08T19:54:42.620Z,75.15
2023-04-08T19:59:43.804Z,74.85
2023-04-08T20:04:45.555Z,74.79
2023-04-08T20:09:46.968Z,74.98
2023-04-08T20:14:47.912Z,74.93
2023-04-08T20:19:48.905Z,75.58
2023-04-08T20:24:50.242Z,75.32
2023-04-08T20:29:51.800Z,75.30
2023-04-08T20:34:52.897Z,75.54
2023-04-08T20:39:53.850Z,75.79
2023-04-08T20:44:55.074Z,75.92
2023-04-08T20:49:56.883Z,76.02
2023-04-08T20:54:57.942Z,75.99
2023-04-08T20:59:59.089Z,76.16
2023-04-08T21:05:00.153Z,76.43
2023-04-08T21:10:02.118Z,76.03
2023-04-08T21:15:05.737Z,75.99
2023-04-08T21:20:07.576Z,75.67
2023-04-08T21:25:09.230Z,75.68
2023-04-08T21:30:10.897Z,76.09
2023-04-08T21:35:16.278Z,76.34
2023-04-08T21:40:17.456Z,76.31
2023-04-08T21:45:39.081Z,76.24
2023-04-08T21:51:00.358Z,76.56
2023-04-08T21:56:19.756Z,77.16
2023-04-08T22:01:20.929Z,77.31
2023-04-08T22:06:31.617Z,78.10
2023-04-08T22:11:33.875Z,78.76
2023-04-08T22:16:35.921Z,79.22
2023-04-08T22:21:36.915Z,80.15
2023-04-08T22:26:38.122Z,80.38
2023-04-08T22:31:39.367Z,80.99
2023-04-08T22:36:40.851Z,81.34
2023-04-08T22:41:42.002Z,81.98
2023-04-08T22:46:43.416Z,82.20
2023-04-08T22:51:44.365Z,82.61
2023-04-08T22:56:45.281Z,83.43
2023-04-08T23:01:46.305Z,84.23
2023-04-08T23:06:48.318Z,83.76
2023-04-08T23:11:50.800Z,83.37
2023-04-08T23:16:54.858Z,83.38
2023-04-08T23:21:56.437Z,83.32
2023-04-08T23:26:57.393Z,83.44
2023-04-08T23:31:58.369Z,83.30
2023-04-08T23:36:59.699Z,83.16
2023-04-08T23:42:01.788Z,83.50
2023-04-08T23:47:03.752Z,83.40
2023-04-08T23:52:06.195Z,83.63
2023-04-08T23:57:07.515Z,83.90
